Time;durP1;ratioP1;P1;durP2;ratioP2;P2;SDS_P1;SDS_P2;PMS_P1;PMS_P2;Temp;Humidity;BMP_temperature;BMP_pressure;BME280_temperature;BME280_humidity;BME280_pressure;Samples;Min_cycle;Max_cycle;Signal;HPM_P1;HPM_P2
2021/08/03 00:00:27;;;;;;;0.10;0.10;;;;;;;;;;5096235;28;20036;-89
2021/08/03 00:02:55;;;;;;;0.10;0.10;;;;;;;;;;5112900;28;20032;-89
2021/08/03 00:05:21;;;;;;;0.10;0.10;;;;;;;;;;5096095;28;20036;-89
2021/08/03 00:07:47;;;;;;;0.10;0.10;;;;;;;;;;5096462;28;20078;-89
2021/08/03 00:10:17;;;;;;;0.10;0.10;;;;;;;;;;5095806;28;20544;-89
2021/08/03 00:12:45;;;;;;;0.10;0.10;;;;;;;;;;5096329;28;20486;-88
2021/08/03 00:15:11;;;;;;;0.10;0.10;;;;;;;;;;5112657;28;20387;-89
2021/08/03 00:17:38;;;;;;;0.10;0.10;;;;;;;;;;5095670;28;20061;-89
2021/08/03 00:20:04;;;;;;;0.10;0.10;;;;;;;;;;5095924;28;20506;-89
2021/08/03 00:22:30;;;;;;;0.10;0.10;;;;;;;;;;5095942;28;20071;-89
2021/08/03 00:24:56;;;;;;;0.10;0.10;;;;;;;;;;5112533;28;20089;-89
2021/08/03 00:27:22;;;;;;;0.10;0.10;;;;;;;;;;5095582;28;20063;-89
2021/08/03 00:29:50;;;;;;;0.10;0.10;;;;;;;;;;5095431;28;20043;-88
2021/08/03 00:32:16;;;;;;;0.20;0.20;;;;;;;;;;5095620;28;20044;-89
2021/08/03 00:34:42;;;;;;;0.10;0.10;;;;;;;;;;5112379;28;20369;-88
2021/08/03 00:37:08;;;;;;;0.10;0.10;;;;;;;;;;5112288;28;20483;-88
2021/08/03 00:39:35;;;;;;;0.10;0.10;;;;;;;;;;5112246;28;20036;-88
2021/08/03 00:42:02;;;;;;;0.10;0.10;;;;;;;;;;5095323;28;20049;-87
2021/08/03 00:44:37;;;;;;;0.10;0.10;;;;;;;;;;5112157;28;20490;-88
2021/08/03 00:47:03;;;;;;;0.10;0.10;;;;;;;;;;5112075;28;20118;-88
2021/08/03 00:49:29;;;;;;;0.10;0.10;;;;;;;;;;5112075;28;20081;-88
2021/08/03 00:51:55;;;;;;;0.10;0.10;;;;;;;;;;5112028;28;20372;-88
2021/08/03 00:54:25;;;;;;;0.10;0.10;;;;;;;;;;5111995;28;20126;-89
2021/08/03 00:56:51;;;;;;;0.10;0.10;;;;;;;;;;5111953;28;20348;-88
2021/08/03 00:59:17;;;;;;;0.10;0.10;;;;;;;;;;5094918;28;20043;-88
2021/08/03 01:01:43;;;;;;;0.10;0.10;;;;;;;;;;5112625;28;20035;-88
2021/08/03 01:04:11;;;;;;;0.10;0.10;;;;;;;;;;5094898;28;20043;-88
2021/08/03 01:06:37;;;;;;;0.10;0.10;;;;;;;;;;5095066;28;20047;-88
2021/08/03 01:09:09;;;;;;;0.10;0.10;;;;;;;;;;5111765;28;20027;-87
2021/08/03 01:11:43;;;;;;;0.10;0.10;;;;;;;;;;5111524;28;20040;-87
2021/08/03 01:14:09;;;;;;;0.10;0.10;;;;;;;;;;5111732;28;20104;-89
2021/08/03 01:16:57;;;;;;;0.10;0.10;;;;;;;;;;5111686;28;20126;-89
2021/08/03 01:19:38;;;;;;;0.10;0.10;;;;;;;;;;5112852;28;20039;-89
2021/08/03 01:22:11;;;;;;;0.10;0.10;;;;;;;;;;5094814;28;20167;-89
2021/08/03 01:24:40;;;;;;;0.10;0.10;;;;;;;;;;5094730;28;20046;-89
2021/08/03 01:27:24;;;;;;;0.10;0.10;;;;;;;;;;5094648;28;20035;-88
2021/08/03 01:29:51;;;;;;;0.10;0.10;;;;;;;;;;5112704;28;20063;-89
2021/08/03 01:32:25;;;;;;;0.10;0.10;;;;;;;;;;5094725;28;20039;-88
2021/08/03 01:34:52;;;;;;;0.10;0.10;;;;;;;;;;5111672;28;20073;-88
2021/08/03 01:37:18;;;;;;;0.10;0.10;;;;;;;;;;5094491;28;20558;-88
2021/08/03 01:39:45;;;;;;;0.10;0.10;;;;;;;;;;5111412;28;20067;-88
2021/08/03 01:42:11;;;;;;;0.10;0.10;;;;;;;;;;5094491;28;20039;-88
2021/08/03 01:44:37;;;;;;;0.10;0.10;;;;;;;;;;5111279;28;20134;-88
2021/08/03 01:47:04;;;;;;;0.10;0.10;;;;;;;;;;5111233;28;20063;-88
2021/08/03 01:49:30;;;;;;;0.10;0.10;;;;;;;;;;5094440;28;20541;-88
2021/08/03 01:51:56;;;;;;;0.10;0.10;;;;;;;;;;5094433;28;20500;-88
2021/08/03 01:54:24;;;;;;;0.10;0.10;;;;;;;;;;5111408;28;20069;-87
2021/08/03 01:56:50;;;;;;;0.10;0.10;;;;;;;;;;5111241;28;20038;-87
2021/08/03 01:59:16;;;;;;;0.10;0.10;;;;;;;;;;5111318;28;20036;-88
2021/08/03 02:01:42;;;;;;;0.10;0.10;;;;;;;;;;5094219;28;20479;-87
2021/08/03 02:04:08;;;;;;;0.10;0.10;;;;;;;;;;5077453;28;20052;-88
2021/08/03 02:06:34;;;;;;;0.10;0.10;;;;;;;;;;5111247;28;20472;-87
2021/08/03 02:09:00;;;;;;;0.10;0.10;;;;;;;;;;5111136;28;20031;-88
2021/08/03 02:11:28;;;;;;;0.10;0.10;;;;;;;;;;5094251;28;20398;-88
2021/08/03 02:13:55;;;;;;;0.10;0.10;;;;;;;;;;5113486;28;20551;-88
2021/08/03 02:16:21;;;;;;;0.10;0.10;;;;;;;;;;5097942;28;20081;-88
2021/08/03 02:18:47;;;;;;;0.10;0.10;;;;;;;;;;5114901;28;20126;-88
2021/08/03 02:21:21;;;;;;;0.10;0.10;;;;;;;;;;5115008;28;20039;-88
2021/08/03 02:23:47;;;;;;;0.10;0.10;;;;;;;;;;5097974;28;20114;-88
2021/08/03 02:26:14;;;;;;;0.10;0.10;;;;;;;;;;5116043;28;20116;-89
2021/08/03 02:28:40;;;;;;;0.10;0.10;;;;;;;;;;5114784;28;20130;-89
2021/08/03 02:31:10;;;;;;;0.10;0.10;;;;;;;;;;5097712;28;20044;-89
2021/08/03 02:33:37;;;;;;;0.10;0.10;;;;;;;;;;5098182;28;20478;-89
2021/08/03 02:36:04;;;;;;;0.10;0.10;;;;;;;;;;5097916;28;20042;-89
2021/08/03 02:38:30;;;;;;;0.10;0.10;;;;;;;;;;5097720;28;20035;-87
2021/08/03 02:40:56;;;;;;;0.10;0.10;;;;;;;;;;5114904;28;20071;-88
2021/08/03 02:43:23;;;;;;;0.10;0.10;;;;;;;;;;5080560;28;20352;-88
2021/08/03 02:45:49;;;;;;;0.10;0.10;;;;;;;;;;5114506;28;20036;-88
2021/08/03 02:48:15;;;;;;;0.10;0.10;;;;;;;;;;5114458;28;20043;-88
2021/08/03 02:50:42;;;;;;;0.10;0.10;;;;;;;;;;5114386;28;20498;-88
2021/08/03 02:53:35;;;;;;;0.10;0.10;;;;;;;;;;5097443;28;20042;-88
2021/08/03 02:56:09;;;;;;;0.10;0.10;;;;;;;;;;5094004;28;20051;-89
2021/08/03 02:58:37;;;;;;;0.10;0.10;;;;;;;;;;5115401;28;20035;-88
2021/08/03 03:01:03;;;;;;;0.10;0.10;;;;;;;;;;5115405;28;20065;-89
2021/08/03 03:03:29;;;;;;;0.10;0.10;;;;;;;;;;5114365;28;20062;-89
2021/08/03 03:06:00;;;;;;;0.10;0.10;;;;;;;;;;5097240;28;20042;-88
2021/08/03 03:08:26;;;;;;;0.10;0.10;;;;;;;;;;5114019;28;20083;-88
2021/08/03 03:10:53;;;;;;;0.10;0.10;;;;;;;;;;5113994;28;20391;-89
2021/08/03 03:13:21;;;;;;;0.10;0.10;;;;;;;;;;5097091;28;20035;-89
2021/08/03 03:15:47;;;;;;;0.10;0.10;;;;;;;;;;5113963;28;20039;-88
2021/08/03 03:18:13;;;;;;;0.10;0.10;;;;;;;;;;5096958;28;20038;-89
2021/08/03 03:20:39;;;;;;;0.10;0.10;;;;;;;;;;5113851;28;20036;-89
2021/08/03 03:23:05;;;;;;;0.20;0.20;;;;;;;;;;5096813;28;20506;-89
2021/08/03 03:25:31;;;;;;;0.10;0.10;;;;;;;;;;5113620;28;20035;-88
2021/08/03 03:27:59;;;;;;;0.10;0.10;;;;;;;;;;5113812;28;20035;-88
2021/08/03 03:30:25;;;;;;;0.10;0.10;;;;;;;;;;5096827;28;20051;-89
2021/08/03 03:32:51;;;;;;;0.10;0.10;;;;;;;;;;5096557;28;20039;-89
2021/08/03 03:35:18;;;;;;;0.10;0.10;;;;;;;;;;5113486;28;20036;-88
2021/08/03 03:37:44;;;;;;;0.10;0.10;;;;;;;;;;5114042;28;20098;-89
2021/08/03 03:40:11;;;;;;;0.10;0.10;;;;;;;;;;5097034;28;20490;-89
2021/08/03 03:42:37;;;;;;;0.10;0.10;;;;;;;;;;5096500;28;20433;-89
2021/08/03 03:45:03;;;;;;;0.10;0.10;;;;;;;;;;5113724;28;20032;-89
2021/08/03 03:47:31;;;;;;;0.10;0.10;;;;;;;;;;5113429;28;20544;-89
2021/08/03 03:49:59;;;;;;;0.10;0.10;;;;;;;;;;5113236;28;20032;-88
2021/08/03 03:52:25;;;;;;;0.10;0.10;;;;;;;;;;5096309;28;20092;-88
2021/08/03 03:54:51;;;;;;;0.10;0.10;;;;;;;;;;5113104;28;20043;-88
2021/08/03 03:57:18;;;;;;;0.10;0.10;;;;;;;;;;5096160;28;20043;-89
2021/08/03 03:59:45;;;;;;;0.10;0.10;;;;;;;;;;5113039;28;20047;-88
2021/08/03 04:02:12;;;;;;;0.10;0.10;;;;;;;;;;5113012;28;20119;-88
2021/08/03 04:04:39;;;;;;;0.10;0.10;;;;;;;;;;5095907;28;20067;-88
2021/08/03 04:07:05;;;;;;;0.10;0.10;;;;;;;;;;5112836;28;20039;-88
2021/08/03 04:09:33;;;;;;;0.10;0.10;;;;;;;;;;5112955;28;20065;-88
2021/08/03 04:11:59;;;;;;;0.10;0.10;;;;;;;;;;5112799;28;20044;-88
2021/08/03 04:14:26;;;;;;;0.10;0.10;;;;;;;;;;5095755;28;20046;-88
2021/08/03 04:16:53;;;;;;;0.10;0.10;;;;;;;;;;5095801;28;20036;-88
2021/08/03 04:19:19;;;;;;;0.10;0.10;;;;;;;;;;5112526;28;20043;-88
2021/08/03 04:21:46;;;;;;;0.10;0.10;;;;;;;;;;5112603;28;20039;-88
2021/08/03 04:24:18;;;;;;;0.10;0.10;;;;;;;;;;5095735;28;20035;-88
2021/08/03 04:26:44;;;;;;;0.10;0.10;;;;;;;;;;5112615;28;20133;-88
2021/08/03 04:29:10;;;;;;;0.10;0.10;;;;;;;;;;5112621;28;20036;-89
2021/08/03 04:31:39;;;;;;;0.10;0.10;;;;;;;;;;5095794;28;20055;-89
2021/08/03 04:34:05;;;;;;;0.10;0.10;;;;;;;;;;5095607;28;20047;-89
2021/08/03 04:36:31;;;;;;;0.10;0.10;;;;;;;;;;5094946;28;20036;-90
2021/08/03 04:38:57;;;;;;;0.10;0.10;;;;;;;;;;5095846;28;20038;-90
2021/08/03 04:41:23;;;;;;;0.10;0.10;;;;;;;;;;5095627;28;20114;-89
2021/08/03 04:43:49;;;;;;;0.10;0.10;;;;;;;;;;5095255;28;20452;-88
2021/08/03 04:46:16;;;;;;;0.10;0.10;;;;;;;;;;5095246;28;20028;-88
2021/08/03 04:48:42;;;;;;;0.10;0.10;;;;;;;;;;5095344;28;20051;-88
2021/08/03 04:51:08;;;;;;;0.10;0.10;;;;;;;;;;5097062;28;20086;-89
2021/08/03 04:53:34;;;;;;;0.10;0.10;;;;;;;;;;5095524;28;20039;-89
2021/08/03 04:56:04;;;;;;;0.10;0.10;;;;;;;;;;5095837;28;20028;-89
2021/08/03 04:58:31;;;;;;;0.10;0.10;;;;;;;;;;5095044;28;20036;-89
2021/08/03 05:00:57;;;;;;;0.10;0.10;;;;;;;;;;5095439;28;20114;-89
2021/08/03 05:03:23;;;;;;;0.10;0.10;;;;;;;;;;5111959;28;20054;-89
2021/08/03 05:05:49;;;;;;;0.10;0.10;;;;;;;;;;5095075;28;20123;-89
2021/08/03 05:08:15;;;;;;;0.10;0.10;;;;;;;;;;5094796;28;20051;-89
2021/08/03 05:10:41;;;;;;;0.20;0.20;;;;;;;;;;5111693;28;20032;-88
2021/08/03 05:13:07;;;;;;;0.10;0.10;;;;;;;;;;5094827;28;20084;-89
2021/08/03 05:15:33;;;;;;;0.10;0.10;;;;;;;;;;5111959;28;20031;-88
2021/08/03 05:17:59;;;;;;;0.10;0.10;;;;;;;;;;5111725;28;20035;-89
2021/08/03 05:20:25;;;;;;;0.10;0.10;;;;;;;;;;5111777;28;20035;-89
2021/08/03 05:22:51;;;;;;;0.10;0.10;;;;;;;;;;5094731;28;20047;-90
2021/08/03 05:25:17;;;;;;;0.10;0.10;;;;;;;;;;5094807;28;20088;-89
2021/08/03 05:27:43;;;;;;;0.20;0.20;;;;;;;;;;5095040;28;20043;-90
2021/08/03 05:30:10;;;;;;;0.10;0.10;;;;;;;;;;5112762;28;20052;-90
2021/08/03 05:32:36;;;;;;;0.20;0.20;;;;;;;;;;5110114;28;20040;-89
2021/08/03 05:35:02;;;;;;;0.10;0.10;;;;;;;;;;5090205;28;20028;-90
2021/08/03 05:37:28;;;;;;;0.10;0.10;;;;;;;;;;5091154;28;20040;-90
2021/08/03 05:39:55;;;;;;;0.10;0.10;;;;;;;;;;5101984;28;20502;-90
2021/08/03 05:42:22;;;;;;;0.10;0.10;;;;;;;;;;5094736;28;20036;-90
2021/08/03 05:44:48;;;;;;;0.10;0.10;;;;;;;;;;5094497;28;20135;-88
2021/08/03 05:47:15;;;;;;;0.10;0.10;;;;;;;;;;5095700;28;20071;-88
2021/08/03 05:49:41;;;;;;;0.10;0.10;;;;;;;;;;5098704;28;20047;-88
2021/08/03 05:52:08;;;;;;;0.10;0.10;;;;;;;;;;5098754;28;20447;-89
2021/08/03 05:54:34;;;;;;;0.10;0.10;;;;;;;;;;5098485;28;20191;-89
2021/08/03 05:57:00;;;;;;;0.10;0.10;;;;;;;;;;5115450;28;20074;-88
2021/08/03 05:59:26;;;;;;;0.10;0.10;;;;;;;;;;5098578;28;20399;-89
2021/08/03 06:01:52;;;;;;;0.10;0.10;;;;;;;;;;5115383;28;20046;-89
2021/08/03 06:04:19;;;;;;;0.10;0.10;;;;;;;;;;5098339;28;20051;-87
2021/08/03 06:06:46;;;;;;;0.10;0.10;;;;;;;;;;5116294;28;20034;-88
2021/08/03 06:09:12;;;;;;;0.10;0.10;;;;;;;;;;5081689;28;20043;-91
2021/08/03 06:11:45;;;;;;;0.10;0.10;;;;;;;;;;5115161;28;20456;-88
2021/08/03 06:14:11;;;;;;;0.10;0.10;;;;;;;;;;5115414;28;20066;-89
2021/08/03 06:16:37;;;;;;;0.15;0.15;;;;;;;;;;5098410;28;20033;-89
2021/08/03 06:19:04;;;;;;;0.10;0.10;;;;;;;;;;5098302;28;20038;-90
2021/08/03 06:21:30;;;;;;;0.10;0.10;;;;;;;;;;5098004;28;20043;-89
2021/08/03 06:23:56;;;;;;;0.10;0.10;;;;;;;;;;5114915;28;20453;-89
2021/08/03 06:26:22;;;;;;;0.10;0.10;;;;;;;;;;5115409;28;20044;-89
2021/08/03 06:28:49;;;;;;;0.10;0.10;;;;;;;;;;5098236;28;20482;-92
2021/08/03 06:31:15;;;;;;;0.10;0.10;;;;;;;;;;5097940;28;20048;-91
2021/08/03 06:33:41;;;;;;;0.20;0.20;;;;;;;;;;5115260;28;20141;-90
2021/08/03 06:36:07;;;;;;;0.10;0.10;;;;;;;;;;5098613;28;20444;-91
2021/08/03 06:38:33;;;;;;;0.20;0.20;;;;;;;;;;5115966;28;20062;-94
2021/08/03 06:41:08;;;;;;;0.10;0.10;;;;;;;;;;5098827;28;20134;-92
2021/08/03 06:43:34;;;;;;;0.10;0.10;;;;;;;;;;5115465;28;20084;-91
2021/08/03 06:46:04;;;;;;;0.10;0.10;;;;;;;;;;5098335;28;20047;-90
2021/08/03 06:48:32;;;;;;;0.10;0.10;;;;;;;;;;5096936;28;20489;-89
2021/08/03 06:51:05;;;;;;;0.10;0.10;;;;;;;;;;5097439;28;20044;-89
2021/08/03 06:53:33;;;;;;;0.10;0.10;;;;;;;;;;5097700;28;20063;-89
2021/08/03 06:55:59;;;;;;;0.10;0.10;;;;;;;;;;5114453;28;20483;-89
2021/08/03 06:58:28;;;;;;;0.10;0.10;;;;;;;;;;5096769;28;20394;-90
2021/08/03 07:00:56;;;;;;;0.10;0.10;;;;;;;;;;5115042;28;20065;-90
2021/08/03 07:03:23;;;;;;;0.10;0.10;;;;;;;;;;5114337;28;20547;-91
2021/08/03 07:05:51;;;;;;;0.10;0.10;;;;;;;;;;5097349;28;20390;-90
2021/08/03 07:08:17;;;;;;;0.10;0.10;;;;;;;;;;5097390;28;20114;-89
2021/08/03 07:10:43;;;;;;;0.10;0.10;;;;;;;;;;5097257;28;20165;-89
2021/08/03 07:13:10;;;;;;;0.10;0.10;;;;;;;;;;5114117;28;20534;-89
2021/08/03 07:15:36;;;;;;;0.10;0.10;;;;;;;;;;5097469;28;20383;-89
2021/08/03 07:18:03;;;;;;;0.20;0.20;;;;;;;;;;5113878;28;20044;-88
2021/08/03 07:20:29;;;;;;;0.10;0.10;;;;;;;;;;5114936;28;20394;-89
2021/08/03 07:22:55;;;;;;;0.20;0.20;;;;;;;;;;5113819;28;20051;-88
2021/08/03 07:25:21;;;;;;;0.10;0.10;;;;;;;;;;5114188;28;20039;-91
2021/08/03 07:27:47;;;;;;;0.52;0.52;;;;;;;;;;5097543;28;20340;-91
2021/08/03 07:30:13;;;;;;;0.13;0.13;;;;;;;;;;5080416;28;20066;-91
2021/08/03 07:32:39;;;;;;;0.20;0.20;;;;;;;;;;5097152;28;20047;-92
2021/08/03 07:35:06;;;;;;;0.10;0.10;;;;;;;;;;5097136;28;20498;-91
2021/08/03 07:37:32;;;;;;;0.20;0.20;;;;;;;;;;5113989;28;20088;-91
2021/08/03 07:39:58;;;;;;;0.20;0.20;;;;;;;;;;5096957;28;20043;-91
2021/08/03 07:42:25;;;;;;;0.20;0.20;;;;;;;;;;5097115;28;20124;-92
2021/08/03 07:44:51;;;;;;;0.20;0.20;;;;;;;;;;5113900;28;20031;-91
2021/08/03 07:47:17;;;;;;;0.20;0.20;;;;;;;;;;5096743;28;20038;-90
2021/08/03 07:49:45;;;;;;;0.20;0.20;;;;;;;;;;5097354;28;20035;-92
2021/08/03 07:52:12;;;;;;;0.15;0.15;;;;;;;;;;5097262;28;20410;-88
2021/08/03 07:54:38;;;;;;;0.20;0.20;;;;;;;;;;5113401;28;20039;-91
2021/08/03 07:57:03;;;;;;;0.20;0.20;;;;;;;;;;5096741;28;20035;-91
2021/08/03 07:59:30;;;;;;;0.20;0.20;;;;;;;;;;5096723;28;20039;-92
2021/08/03 08:01:58;;;;;;;0.10;0.10;;;;;;;;;;5098694;28;20051;-93
2021/08/03 08:04:24;;;;;;;0.20;0.20;;;;;;;;;;5080224;28;20062;-91
2021/08/03 08:06:50;;;;;;;0.15;0.15;;;;;;;;;;5113233;28;20466;-91
2021/08/03 08:09:16;;;;;;;0.20;0.20;;;;;;;;;;5114316;28;20050;-91
2021/08/03 08:11:42;;;;;;;0.20;0.20;;;;;;;;;;5094982;28;20039;-91
2021/08/03 08:14:08;;;;;;;0.20;0.20;;;;;;;;;;5096288;28;20112;-90
2021/08/03 08:16:34;;;;;;;0.20;0.20;;;;;;;;;;5095904;28;20057;-91
2021/08/03 08:19:00;;;;;;;0.13;0.13;;;;;;;;;;5096083;28;20367;-91
2021/08/03 08:21:32;;;;;;;0.20;0.20;;;;;;;;;;5112910;28;20166;-90
2021/08/03 08:23:58;;;;;;;0.10;0.10;;;;;;;;;;5113090;28;20100;-90
2021/08/03 08:26:24;;;;;;;0.20;0.20;;;;;;;;;;5095800;28;20399;-90
2021/08/03 08:28:50;;;;;;;0.20;0.20;;;;;;;;;;5112624;28;20149;-91
2021/08/03 08:31:16;;;;;;;0.20;0.20;;;;;;;;;;5095841;28;20135;-92
2021/08/03 08:33:42;;;;;;;0.20;0.20;;;;;;;;;;5096131;28;20032;-92
2021/08/03 08:36:08;;;;;;;0.20;0.20;;;;;;;;;;5095934;28;20495;-92
2021/08/03 08:38:34;;;;;;;0.20;0.20;;;;;;;;;;5112735;28;20035;-92
2021/08/03 08:41:00;;;;;;;0.20;0.20;;;;;;;;;;5112930;28;20051;-92
2021/08/03 08:43:26;;;;;;;0.20;0.20;;;;;;;;;;5112735;28;20039;-92
2021/08/03 08:45:54;;;;;;;0.20;0.20;;;;;;;;;;5095838;28;20036;-92
2021/08/03 08:48:20;;;;;;;0.20;0.20;;;;;;;;;;5096031;28;20047;-93
2021/08/03 08:50:46;;;;;;;0.20;0.20;;;;;;;;;;5096039;28;20122;-91
2021/08/03 08:53:12;;;;;;;0.10;0.10;;;;;;;;;;5112825;28;20035;-90
2021/08/03 08:55:38;;;;;;;0.20;0.20;;;;;;;;;;5095979;28;20036;-93
2021/08/03 08:58:05;;;;;;;0.20;0.20;;;;;;;;;;5078880;28;20050;-91
2021/08/03 09:00:31;;;;;;;0.20;0.20;;;;;;;;;;5115790;28;20034;-90
2021/08/03 09:03:03;;;;;;;0.20;0.20;;;;;;;;;;5112870;28;20100;-93
2021/08/03 09:05:30;;;;;;;0.20;0.20;;;;;;;;;;5095569;28;20038;-91
2021/08/03 09:07:57;;;;;;;0.20;0.20;;;;;;;;;;5095308;28;20031;-92
2021/08/03 09:10:42;;;;;;;0.20;0.20;;;;;;;;;;5095042;28;20096;-89
2021/08/03 09:13:11;;;;;;;0.20;0.20;;;;;;;;;;5113704;28;20047;-92
2021/08/03 09:15:43;;;;;;;0.20;0.20;;;;;;;;;;5078662;28;20075;-90
2021/08/03 09:18:10;;;;;;;0.20;0.20;;;;;;;;;;5095269;28;20048;-93
2021/08/03 09:20:36;;;;;;;0.20;0.20;;;;;;;;;;5095392;28;20122;-91
2021/08/03 09:23:04;;;;;;;0.28;0.28;;;;;;;;;;5095386;28;20122;-95
2021/08/03 09:25:30;;;;;;;0.20;0.20;;;;;;;;;;5079457;28;20052;-90
2021/08/03 09:28:06;;;;;;;0.20;0.20;;;;;;;;;;5112332;28;20175;-93
2021/08/03 09:30:36;;;;;;;0.20;0.20;;;;;;;;;;5094965;28;20047;-91
2021/08/03 09:33:04;;;;;;;0.20;0.20;;;;;;;;;;5078348;28;20122;-92
2021/08/03 09:35:30;;;;;;;0.20;0.20;;;;;;;;;;5095395;28;20491;-93
2021/08/03 09:37:56;;;;;;;0.20;0.20;;;;;;;;;;5095579;28;20077;-91
2021/08/03 09:40:24;;;;;;;0.20;0.20;;;;;;;;;;5112685;28;20063;-90
2021/08/03 09:42:59;;;;;;;0.20;0.20;;;;;;;;;;5096053;28;20555;-94
2021/08/03 09:45:25;;;;;;;0.20;0.20;;;;;;;;;;5113166;28;20046;-93
2021/08/03 09:47:51;;;;;;;0.10;0.10;;;;;;;;;;5096129;28;20043;-95
2021/08/03 09:50:18;;;;;;;0.20;0.20;;;;;;;;;;5078862;28;20036;-93
2021/08/03 09:52:47;;;;;;;0.20;0.20;;;;;;;;;;5111963;28;20104;-90
2021/08/03 09:55:13;;;;;;;0.20;0.20;;;;;;;;;;5098267;28;20046;-90
2021/08/03 09:57:43;;;;;;;0.20;0.20;;;;;;;;;;5115027;28;20553;-90
2021/08/03 10:00:25;;;;;;;0.20;0.20;;;;;;;;;;5118144;28;20417;-91
2021/08/03 10:02:54;;;;;;;0.20;0.20;;;;;;;;;;5113971;28;20043;-92
2021/08/03 10:05:22;;;;;;;0.20;0.20;;;;;;;;;;5096147;28;20040;-94
2021/08/03 10:07:48;;;;;;;0.43;0.43;;;;;;;;;;5093815;28;20080;-95
2021/08/03 10:10:15;;;;;;;0.20;0.20;;;;;;;;;;5060022;28;20105;-95
2021/08/03 10:12:42;;;;;;;0.20;0.20;;;;;;;;;;5064099;28;20040;-96
2021/08/03 10:15:12;;;;;;;0.20;0.20;;;;;;;;;;5094511;28;20340;-95
2021/08/03 10:17:39;;;;;;;0.20;0.20;;;;;;;;;;5076317;28;20076;-95
2021/08/03 10:20:07;;;;;;;0.20;0.20;;;;;;;;;;5066135;28;20047;-93
2021/08/03 10:22:43;;;;;;;0.13;0.13;;;;;;;;;;5094442;28;20090;-94
2021/08/03 10:25:13;;;;;;;0.20;0.20;;;;;;;;;;5077166;28;20040;-95
2021/08/03 10:27:40;;;;;;;0.20;0.20;;;;;;;;;;5074916;28;20036;-91
2021/08/03 10:30:07;;;;;;;0.20;0.20;;;;;;;;;;5074760;28;20600;-91
2021/08/03 10:32:44;;;;;;;0.20;0.20;;;;;;;;;;5091534;28;20040;-91
2021/08/03 10:35:15;;;;;;;0.20;0.20;;;;;;;;;;5060787;28;20040;-90
2021/08/03 10:37:59;;;;;;;0.20;0.20;;;;;;;;;;5078632;28;20040;-91
2021/08/03 10:40:44;;;;;;;0.20;0.20;;;;;;;;;;5095369;28;20039;-94
2021/08/03 10:43:19;;;;;;;0.20;0.20;;;;;;;;;;5095275;28;20439;-93
2021/08/03 10:45:46;;;;;;;0.15;0.15;;;;;;;;;;5115747;28;20043;-95
2021/08/03 10:48:32;;;;;;;0.20;0.20;;;;;;;;;;5097529;28;20040;-90
2021/08/03 10:50:58;;;;;;;0.20;0.20;;;;;;;;;;5115421;28;20039;-89
2021/08/03 10:53:23;;;;;;;0.20;0.20;;;;;;;;;;5097611;28;20402;-88
2021/08/03 10:55:59;;;;;;;0.20;0.20;;;;;;;;;;5115142;28;20039;-93
2021/08/03 10:58:25;;;;;;;0.20;0.20;;;;;;;;;;5098817;28;20035;-94
2021/08/03 11:00:55;;;;;;;0.20;0.20;;;;;;;;;;5081310;28;20040;-89
2021/08/03 11:03:33;;;;;;;0.20;0.20;;;;;;;;;;5115215;28;20067;-88
2021/08/03 11:06:04;;;;;;;0.20;0.20;;;;;;;;;;5115350;28;20437;-90
2021/08/03 11:08:34;;;;;;;0.20;0.20;;;;;;;;;;5115077;28;20062;-93
2021/08/03 11:11:06;;;;;;;0.20;0.20;;;;;;;;;;5098414;28;20372;-93
2021/08/03 11:13:40;;;;;;;0.13;0.13;;;;;;;;;;5098395;28;20047;-87
2021/08/03 11:16:11;;;;;;;0.10;0.10;;;;;;;;;;5113985;28;20039;-90
2021/08/03 11:18:44;;;;;;;0.20;0.20;;;;;;;;;;5111282;28;20479;-90
2021/08/03 11:21:10;;;;;;;0.20;0.20;;;;;;;;;;5097586;28;20039;-88
2021/08/03 11:23:56;;;;;;;0.10;0.10;;;;;;;;;;5113812;28;20055;-88
2021/08/03 11:26:22;;;;;;;0.20;0.20;;;;;;;;;;5117989;28;20036;-95
2021/08/03 11:28:57;;;;;;;0.20;0.20;;;;;;;;;;5115110;28;20046;-96
2021/08/03 11:31:30;;;;;;;0.10;0.10;;;;;;;;;;5115908;28;20576;-94
2021/08/03 11:33:56;;;;;;;0.10;0.10;;;;;;;;;;5115085;28;20035;-94
2021/08/03 11:36:22;;;;;;;0.10;0.10;;;;;;;;;;5098250;28;20035;-95
2021/08/03 11:38:48;;;;;;;0.10;0.10;;;;;;;;;;5114458;28;20085;-94
2021/08/03 11:41:15;;;;;;;0.13;0.13;;;;;;;;;;5081271;28;20074;-95
2021/08/03 11:43:41;;;;;;;0.20;0.20;;;;;;;;;;5114633;28;20445;-94
2021/08/03 11:46:07;;;;;;;0.20;0.20;;;;;;;;;;5080970;28;20035;-94
2021/08/03 11:48:33;;;;;;;0.15;0.15;;;;;;;;;;5097645;28;20032;-95
2021/08/03 11:51:00;;;;;;;0.20;0.20;;;;;;;;;;5097726;28;20039;-95
2021/08/03 11:53:26;;;;;;;0.10;0.10;;;;;;;;;;5080929;28;20043;-94
2021/08/03 11:55:53;;;;;;;0.20;0.20;;;;;;;;;;5097881;28;20390;-95
2021/08/03 11:58:19;;;;;;;0.10;0.10;;;;;;;;;;5081092;28;20108;-96
2021/08/03 12:00:46;;;;;;;0.20;0.20;;;;;;;;;;5097867;28;20407;-94
2021/08/03 12:03:15;;;;;;;0.20;0.20;;;;;;;;;;5097938;28;20059;-94
2021/08/03 12:05:41;;;;;;;0.10;0.10;;;;;;;;;;5114177;28;20047;-95
2021/08/03 12:08:14;;;;;;;0.20;0.20;;;;;;;;;;5100055;28;20040;-92
2021/08/03 12:10:49;;;;;;;0.10;0.10;;;;;;;;;;5099013;28;20035;-94
2021/08/03 12:13:31;;;;;;;0.10;0.10;;;;;;;;;;5114222;28;20039;-94
2021/08/03 12:15:57;;;;;;;0.20;0.20;;;;;;;;;;5114222;28;20039;-95
2021/08/03 12:18:24;;;;;;;0.10;0.10;;;;;;;;;;5097299;28;20056;-95
2021/08/03 12:20:50;;;;;;;0.20;0.20;;;;;;;;;;5097325;28;20027;-94
2021/08/03 12:23:19;;;;;;;0.20;0.20;;;;;;;;;;5097000;28;20054;-94
2021/08/03 12:25:48;;;;;;;0.10;0.10;;;;;;;;;;5113770;28;20039;-93
2021/08/03 12:28:33;;;;;;;0.73;0.30;;;;;;;;;;5113907;28;20116;-95
2021/08/03 12:31:15;;;;;;;0.20;0.20;;;;;;;;;;5114784;28;20048;-96
2021/08/03 12:33:41;;;;;;;0.20;0.20;;;;;;;;;;5096898;28;20032;-94
2021/08/03 12:36:15;;;;;;;0.20;0.20;;;;;;;;;;5096679;28;20036;-95
2021/08/03 12:38:43;;;;;;;0.10;0.10;;;;;;;;;;5097776;28;20078;-94
2021/08/03 12:41:15;;;;;;;0.10;0.10;;;;;;;;;;5097264;28;20088;-94
2021/08/03 12:43:42;;;;;;;0.20;0.20;;;;;;;;;;5114591;28;20035;-93
2021/08/03 12:46:08;;;;;;;0.20;0.20;;;;;;;;;;5096712;28;20035;-94
2021/08/03 12:48:34;;;;;;;0.10;0.10;;;;;;;;;;5096531;28;20032;-95
2021/08/03 12:51:01;;;;;;;0.10;0.10;;;;;;;;;;5096621;28;20115;-93
2021/08/03 12:53:28;;;;;;;0.10;0.10;;;;;;;;;;5079685;28;20063;-94
2021/08/03 12:55:58;;;;;;;0.10;0.10;;;;;;;;;;5096549;28;20051;-96
2021/08/03 12:58:41;;;;;;;0.45;0.30;;;;;;;;;;5096323;28;20102;-95
2021/08/03 13:01:22;;;;;;;0.20;0.20;;;;;;;;;;5080279;28;20066;-94
2021/08/03 13:03:48;;;;;;;0.10;0.10;;;;;;;;;;5097196;28;20536;-93
2021/08/03 13:06:15;;;;;;;0.10;0.10;;;;;;;;;;5113002;28;20031;-94
2021/08/03 13:08:48;;;;;;;0.17;0.17;;;;;;;;;;5113214;28;20126;-94
2021/08/03 13:11:16;;;;;;;0.20;0.20;;;;;;;;;;5096210;28;20028;-94
2021/08/03 13:13:43;;;;;;;0.10;0.10;;;;;;;;;;5113000;28;20035;-94
2021/08/03 13:16:09;;;;;;;0.10;0.10;;;;;;;;;;5114005;27;20195;-94
2021/08/03 13:18:38;;;;;;;0.10;0.10;;;;;;;;;;5096142;28;20069;-95
2021/08/03 13:21:04;;;;;;;0.20;0.20;;;;;;;;;;5112895;28;20036;-95
2021/08/03 13:23:31;;;;;;;0.20;0.20;;;;;;;;;;5113066;28;20036;-93
2021/08/03 13:25:57;;;;;;;0.20;0.20;;;;;;;;;;5112940;28;20036;-94
2021/08/03 13:28:23;;;;;;;0.10;0.10;;;;;;;;;;5095885;28;20058;-95
2021/08/03 13:30:49;;;;;;;0.20;0.20;;;;;;;;;;5095861;28;20126;-95
2021/08/03 13:33:15;;;;;;;0.20;0.20;;;;;;;;;;5095537;28;20106;-94
2021/08/03 13:35:41;;;;;;;0.10;0.10;;;;;;;;;;5095834;28;20475;-89
2021/08/03 13:38:07;;;;;;;0.10;0.10;;;;;;;;;;5095160;28;20122;-90
2021/08/03 13:40:34;;;;;;;0.10;0.10;;;;;;;;;;5111350;28;20027;-90
2021/08/03 13:43:00;;;;;;;0.10;0.10;;;;;;;;;;5112488;28;20040;-91
2021/08/03 13:45:26;;;;;;;0.10;0.10;;;;;;;;;;5095673;28;20044;-92
2021/08/03 13:47:52;;;;;;;0.20;0.20;;;;;;;;;;5095053;28;20130;-92
2021/08/03 13:50:18;;;;;;;0.10;0.10;;;;;;;;;;5095232;28;20063;-90
2021/08/03 13:52:44;;;;;;;0.17;0.17;;;;;;;;;;5111693;28;20110;-91
2021/08/03 13:55:10;;;;;;;0.20;0.20;;;;;;;;;;5095399;28;20510;-92
2021/08/03 13:57:36;;;;;;;0.10;0.10;;;;;;;;;;5094798;28;20069;-91
2021/08/03 14:00:03;;;;;;;0.10;0.10;;;;;;;;;;5094769;28;20111;-90
2021/08/03 14:02:29;;;;;;;0.20;0.20;;;;;;;;;;5094830;28;20073;-91
2021/08/03 14:04:55;;;;;;;0.20;0.20;;;;;;;;;;5094994;28;20067;-90
2021/08/03 14:07:21;;;;;;;0.20;0.20;;;;;;;;;;5095143;28;20035;-91
2021/08/03 14:09:48;;;;;;;0.10;0.10;;;;;;;;;;5098807;28;20056;-91
2021/08/03 14:12:14;;;;;;;0.20;0.20;;;;;;;;;;5100187;28;20040;-91
2021/08/03 14:14:40;;;;;;;0.10;0.10;;;;;;;;;;5098652;28;20122;-91
2021/08/03 14:17:06;;;;;;;0.10;0.10;;;;;;;;;;5099330;28;20062;-90
2021/08/03 14:19:32;;;;;;;0.10;0.10;;;;;;;;;;5099013;28;20471;-90
2021/08/03 14:22:00;;;;;;;0.20;0.20;;;;;;;;;;5099181;28;20096;-90
2021/08/03 14:24:26;;;;;;;0.10;0.10;;;;;;;;;;5098622;28;20039;-91
2021/08/03 14:26:52;;;;;;;0.10;0.10;;;;;;;;;;5098766;28;20149;-91
2021/08/03 14:29:18;;;;;;;0.10;0.10;;;;;;;;;;5115586;28;20047;-90
2021/08/03 14:31:45;;;;;;;0.10;0.10;;;;;;;;;;5098527;28;20063;-91
2021/08/03 14:34:12;;;;;;;0.15;0.15;;;;;;;;;;5115504;28;20039;-91
2021/08/03 14:36:38;;;;;;;0.10;0.10;;;;;;;;;;5115433;28;20043;-91
2021/08/03 14:39:04;;;;;;;0.10;0.10;;;;;;;;;;5098033;28;20475;-91
2021/08/03 14:41:34;;;;;;;0.20;0.20;;;;;;;;;;5098376;28;20035;-91
2021/08/03 14:44:00;;;;;;;0.20;0.20;;;;;;;;;;5098668;28;20050;-91
2021/08/03 14:46:26;;;;;;;0.20;0.20;;;;;;;;;;5098270;28;20028;-92